createdAt,value
2018-12-22T00:02:14.379Z,1.37
2018-12-22T00:04:43.621Z,1.37
2018-12-22T00:07:12.784Z,1.27
2018-12-22T00:09:41.780Z,1.26
2018-12-22T00:12:10.876Z,1.22
2018-12-22T00:14:39.857Z,1.21
2018-12-22T00:17:08.990Z,1.06
2018-12-22T00:19:38.073Z,1.11
2018-12-22T00:22:06.863Z,1.11
2018-12-22T00:24:35.927Z,1.02
2018-12-22T00:27:04.669Z,1.12
2018-12-22T00:29:33.340Z,1.03
2018-12-22T00:32:02.333Z,1.15
2018-12-22T00:34:31.416Z,1.19
2018-12-22T00:37:00.511Z,1.19
2018-12-22T00:39:29.503Z,1.23
2018-12-22T00:41:58.430Z,1.24
2018-12-22T00:44:27.261Z,1.22
2018-12-22T00:46:56.278Z,1.24
2018-12-22T00:49:25.482Z,1.03
2018-12-22T00:51:54.299Z,1.09
2018-12-22T00:54:23.219Z,1.03
2018-12-22T00:56:52.371Z,0.94
2018-12-22T00:59:21.556Z,1.04
2018-12-22T01:01:50.584Z,1.14
2018-12-22T01:04:19.688Z,1.11
2018-12-22T01:06:48.749Z,0.93
2018-12-22T01:09:17.838Z,0.82
2018-12-22T01:11:46.917Z,0.83
2018-12-22T01:14:15.679Z,0.86
2018-12-22T01:16:44.878Z,0.99
2018-12-22T01:19:14.117Z,1.08
2018-12-22T01:21:43.204Z,1.16
2018-12-22T01:24:12.370Z,1.22
2018-12-22T01:26:41.082Z,1.22
2018-12-22T01:29:09.967Z,1.28
2018-12-22T01:31:38.980Z,1.28
2018-12-22T01:34:07.736Z,1.35
2018-12-22T01:36:36.662Z,1.29
2018-12-22T01:39:06.874Z,1.32
2018-12-22T01:41:35.865Z,1.31
2018-12-22T01:44:04.980Z,1.24
2018-12-22T01:46:33.747Z,1.30
2018-12-22T01:49:02.745Z,1.27
2018-12-22T01:51:31.531Z,1.23
2018-12-22T01:54:00.718Z,1.23
2018-12-22T01:56:29.550Z,1.22
2018-12-22T01:58:58.636Z,1.23
2018-12-22T02:01:27.380Z,1.26
2018-12-22T02:03:56.073Z,1.26
2018-12-22T02:06:25.096Z,1.25
2018-12-22T02:08:54.026Z,1.28
2018-12-22T02:11:23.336Z,1.23
2018-12-22T02:13:52.089Z,1.23
2018-12-22T02:16:20.823Z,1.21
2018-12-22T02:18:49.489Z,1.22
2018-12-22T02:21:18.552Z,1.13
2018-12-22T02:23:47.259Z,1.21
2018-12-22T02:26:16.065Z,1.15
2018-12-22T02:28:45.141Z,1.17
2018-12-22T02:31:15.024Z,1.18
2018-12-22T02:33:44.132Z,1.15
2018-12-22T02:36:13.114Z,1.16
2018-12-22T02:38:42.212Z,1.19
2018-12-22T02:41:11.173Z,1.18
2018-12-22T02:43:40.036Z,1.11
2018-12-22T02:46:09.108Z,1.10
2018-12-22T02:48:37.877Z,1.11
2018-12-22T02:51:06.982Z,1.11
2018-12-22T02:53:35.759Z,1.19
2018-12-22T02:56:04.962Z,1.13
2018-12-22T02:58:34.089Z,1.03
2018-12-22T03:01:02.962Z,1.09
2018-12-22T03:03:32.010Z,1.10
2018-12-22T03:06:01.040Z,1.09
2018-12-22T03:08:29.932Z,1.09
2018-12-22T03:10:59.026Z,1.14
2018-12-22T03:13:27.775Z,1.14
2018-12-22T03:15:56.684Z,1.08
2018-12-22T03:18:25.915Z,1.03
2018-12-22T03:20:55.281Z,1.04
2018-12-22T03:23:24.311Z,1.10
2018-12-22T03:25:53.418Z,1.18
2018-12-22T03:28:22.153Z,1.23
2018-12-22T03:30:51.036Z,1.09
2018-12-22T03:33:19.854Z,1.17
2018-12-22T03:35:48.903Z,1.23
2018-12-22T03:38:17.988Z,1.20
2018-12-22T03:40:46.793Z,1.21
2018-12-22T03:43:15.645Z,1.24
2018-12-22T03:45:44.825Z,1.21
2018-12-22T03:48:13.787Z,1.05
2018-12-22T03:50:42.544Z,1.04
2018-12-22T03:53:11.200Z,1.05
2018-12-22T03:55:40.299Z,0.99
2018-12-22T03:58:09.376Z,0.80
2018-12-22T04:00:38.600Z,0.86
2018-12-22T04:03:07.754Z,0.82
2018-12-22T04:05:36.628Z,0.84
2018-12-22T04:08:05.627Z,0.76
2018-12-22T04:10:34.425Z,0.74
2018-12-22T04:13:03.680Z,0.86
2018-12-22T04:15:32.821Z,0.92
2018-12-22T04:18:01.552Z,0.92
2018-12-22T04:20:30.688Z,0.95
2018-12-22T04:22:59.841Z,0.84
2018-12-22T04:25:28.609Z,0.78
2018-12-22T04:27:57.627Z,0.72
2018-12-22T04:30:26.399Z,0.80
2018-12-22T04:32:55.264Z,0.80
2018-12-22T04:35:23.985Z,0.79
2018-12-22T04:37:52.899Z,0.81
2018-12-22T04:40:22.180Z,0.77
2018-12-22T04:42:50.879Z,0.77
2018-12-22T04:45:19.617Z,0.66
2018-12-22T04:47:48.756Z,0.77
2018-12-22T04:50:17.408Z,0.70
2018-12-22T04:52:46.438Z,0.73
2018-12-22T04:55:15.515Z,0.79
2018-12-22T04:57:44.636Z,0.86
2018-12-22T05:00:13.958Z,0.75
2018-12-22T05:02:43.024Z,0.72
2018-12-22T05:05:12.427Z,0.60
2018-12-22T05:07:41.509Z,0.73
2018-12-22T05:10:10.450Z,0.82
2018-12-22T05:12:39.168Z,0.91
2018-12-22T05:15:09.188Z,0.92
2018-12-22T05:17:38.532Z,0.90
2018-12-22T05:20:07.953Z,0.64
2018-12-22T05:22:36.916Z,0.51
2018-12-22T05:25:05.731Z,0.66
2018-12-22T05:27:34.643Z,0.73
2018-12-22T05:30:03.544Z,0.82
2018-12-22T05:32:32.571Z,0.88
2018-12-22T05:35:01.534Z,0.87
2018-12-22T05:37:30.667Z,0.92
2018-12-22T05:39:59.780Z,0.90
2018-12-22T05:42:28.551Z,0.89
2018-12-22T05:44:57.556Z,0.89
2018-12-22T05:47:26.530Z,0.95
2018-12-22T05:49:55.539Z,0.94
2018-12-22T05:52:24.513Z,0.94
2018-12-22T05:54:53.242Z,0.91
2018-12-22T05:57:22.306Z,0.91
2018-12-22T05:59:51.384Z,0.94
2018-12-22T06:02:20.281Z,0.95
2018-12-22T06:04:49.073Z,0.96
2018-12-22T06:07:18.079Z,1.02
2018-12-22T06:09:46.812Z,1.07
2018-12-22T06:12:15.967Z,1.12
2018-12-22T06:14:44.735Z,1.18
2018-12-22T06:17:13.543Z,1.21
2018-12-22T06:19:42.523Z,1.25
2018-12-22T06:22:11.523Z,1.29
2018-12-22T06:24:40.583Z,1.23
2018-12-22T06:27:10.594Z,1.23
2018-12-22T06:29:40.032Z,1.20
2018-12-22T06:32:09.481Z,1.26
2018-12-22T06:34:38.732Z,1.32
2018-12-22T06:37:07.943Z,1.30
2018-12-22T06:39:37.074Z,1.25
2018-12-22T06:42:05.805Z,1.14
2018-12-22T06:44:34.568Z,1.19
2018-12-22T06:47:03.919Z,1.28
2018-12-22T06:49:32.715Z,1.29
2018-12-22T06:52:01.670Z,1.35
2018-12-22T06:54:30.357Z,1.38
2018-12-22T06:56:59.155Z,1.41
2018-12-22T06:59:28.156Z,1.35
2018-12-22T07:01:57.248Z,1.33
2018-12-22T07:04:26.291Z,1.26
2018-12-22T07:06:55.250Z,1.26
2018-12-22T07:09:23.970Z,1.27
2018-12-22T07:11:52.708Z,1.32
2018-12-22T07:14:21.823Z,1.34
2018-12-22T07:16:50.828Z,1.35
2018-12-22T07:19:20.144Z,1.36
2018-12-22T07:21:48.831Z,1.36
2018-12-22T07:24:17.998Z,1.37
2018-12-22T07:26:46.743Z,1.41
2018-12-22T07:29:16.041Z,1.44
2018-12-22T07:31:44.904Z,1.47
2018-12-22T07:34:13.964Z,1.47
2018-12-22T07:36:43.213Z,1.47
2018-12-22T07:39:12.270Z,1.34
2018-12-22T07:41:42.245Z,1.40
2018-12-22T07:44:10.987Z,1.48
2018-12-22T07:46:40.070Z,1.41
2018-12-22T07:49:09.546Z,1.45
2018-12-22T07:51:38.683Z,1.42
2018-12-22T07:54:08.446Z,1.47
2018-12-22T07:56:37.255Z,1.55
2018-12-22T07:59:06.778Z,1.55
2018-12-22T08:01:35.883Z,1.63
2018-12-22T08:04:04.975Z,1.67
2018-12-22T08:06:33.742Z,1.74
2018-12-22T08:09:02.863Z,1.80
2018-12-22T08:11:31.814Z,1.72
2018-12-22T08:14:00.928Z,1.66
2018-12-22T08:16:30.019Z,1.78
2018-12-22T08:18:58.751Z,1.87
2018-12-22T08:21:27.561Z,1.93
2018-12-22T08:23:56.510Z,1.87
2018-12-22T08:26:25.508Z,1.63
2018-12-22T08:28:55.011Z,1.58
2018-12-22T08:31:24.395Z,1.56
2018-12-22T08:33:53.501Z,1.76
2018-12-22T08:36:22.451Z,1.65
2018-12-22T08:38:52.110Z,1.52
2018-12-22T08:41:21.225Z,1.74
2018-12-22T08:43:50.293Z,1.97
2018-12-22T08:46:19.499Z,2.20
2018-12-22T08:48:48.756Z,2.35
2018-12-22T08:51:17.927Z,1.73
2018-12-22T08:53:47.111Z,1.22
2018-12-22T08:56:15.863Z,1.62
2018-12-22T08:58:44.970Z,1.87
2018-12-22T09:01:13.970Z,2.06
2018-12-22T09:03:43.113Z,2.19
2018-12-22T09:06:11.893Z,2.31
2018-12-22T09:08:41.366Z,2.13
2018-12-22T09:11:10.385Z,2.17
2018-12-22T09:13:39.199Z,2.11
2018-12-22T09:16:08.342Z,2.00
2018-12-22T09:18:37.331Z,1.81
2018-12-22T09:21:06.174Z,1.98
2018-12-22T09:23:34.910Z,2.24
2018-12-22T09:26:03.653Z,2.42
2018-12-22T09:28:32.686Z,2.02
2018-12-22T09:31:01.514Z,1.67
2018-12-22T09:33:30.298Z,1.90
2018-12-22T09:35:59.371Z,2.30
2018-12-22T09:38:28.368Z,2.41
2018-12-22T09:40:57.606Z,2.22
2018-12-22T09:43:26.552Z,2.17
2018-12-22T09:45:55.638Z,2.50
2018-12-22T09:48:24.396Z,2.54
2018-12-22T09:50:53.421Z,2.07
2018-12-22T09:53:22.423Z,2.20
2018-12-22T09:55:51.163Z,2.23
2018-12-22T09:58:20.419Z,2.40
2018-12-22T10:00:49.144Z,2.66
2018-12-22T10:03:17.910Z,2.87
2018-12-22T10:05:47.192Z,2.86
2018-12-22T10:08:16.164Z,3.02
2018-12-22T10:10:45.166Z,3.13
2018-12-22T10:13:14.241Z,3.23
2018-12-22T10:15:43.272Z,3.41
2018-12-22T10:18:12.262Z,3.52
2018-12-22T10:20:41.466Z,3.60
2018-12-22T10:23:10.551Z,3.67
2018-12-22T10:25:39.971Z,3.68
2018-12-22T10:28:09.059Z,3.72
2018-12-22T10:30:37.894Z,3.82
2018-12-22T10:33:07.953Z,3.86
2018-12-22T10:35:37.063Z,3.82
2018-12-22T10:38:05.847Z,3.75
2018-12-22T10:40:35.558Z,3.88
2018-12-22T10:43:04.516Z,4.01
2018-12-22T10:45:33.403Z,4.02
2018-12-22T10:48:02.451Z,3.96
2018-12-22T10:50:31.825Z,3.44
2018-12-22T10:53:00.928Z,2.93
2018-12-22T10:55:29.918Z,3.23
2018-12-22T10:57:59.997Z,3.10
2018-12-22T11:00:29.736Z,3.21
2018-12-22T11:02:58.527Z,2.99
2018-12-22T11:05:27.624Z,3.29
2018-12-22T11:07:56.743Z,3.37
2018-12-22T11:10:27.134Z,3.59
2018-12-22T11:12:59.210Z,3.55
2018-12-22T11:15:28.511Z,3.45
2018-12-22T11:17:57.593Z,3.46
2018-12-22T11:20:26.358Z,3.37
2018-12-22T11:22:55.165Z,3.53
2018-12-22T11:25:25.814Z,3.63
2018-12-22T11:27:55.018Z,3.74
2018-12-22T11:30:31.583Z,3.77
2018-12-22T11:33:00.603Z,3.54
2018-12-22T11:35:29.696Z,3.40
2018-12-22T11:37:58.693Z,3.42
2018-12-22T11:40:27.802Z,3.10
2018-12-22T11:42:56.611Z,3.31
2018-12-22T11:45:25.683Z,3.39
2018-12-22T11:50:07.369Z,3.30
2018-12-22T11:52:36.354Z,3.22
2018-12-22T11:55:06.383Z,3.54
2018-12-22T11:57:35.455Z,3.72
2018-12-22T12:00:04.605Z,3.87
2018-12-22T12:02:34.496Z,3.62
2018-12-22T12:05:03.565Z,3.59
2018-12-22T12:07:32.823Z,3.35
2018-12-22T12:10:01.864Z,3.41
2018-12-22T12:12:30.661Z,3.43
2018-12-22T12:14:59.645Z,3.38
2018-12-22T12:17:39.242Z,3.66
2018-12-22T12:20:08.319Z,3.90
2018-12-22T12:22:37.303Z,3.96
2018-12-22T12:25:07.509Z,4.14
2018-12-22T12:27:36.223Z,4.30
2018-12-22T12:30:07.782Z,4.02
2018-12-22T12:32:36.727Z,3.98
2018-12-22T12:35:06.367Z,3.76
2018-12-22T12:37:35.353Z,3.65
2018-12-22T12:40:05.065Z,3.39
2018-12-22T12:42:33.902Z,3.25
2018-12-22T12:45:03.087Z,3.33
2018-12-22T12:47:33.056Z,3.41
2018-12-22T12:50:02.321Z,3.51
2018-12-22T12:52:31.364Z,3.64
2018-12-22T12:55:00.558Z,3.77
2018-12-22T12:57:29.508Z,3.94
2018-12-22T12:59:58.476Z,4.08
2018-12-22T13:02:28.104Z,4.11
2018-12-22T13:04:57.349Z,4.12
2018-12-22T13:07:26.636Z,4.09
2018-12-22T13:09:55.656Z,4.04
2018-12-22T13:12:27.482Z,4.11
2018-12-22T13:14:56.689Z,4.17
2018-12-22T13:17:25.676Z,4.16
2018-12-22T13:19:54.659Z,4.19
2018-12-22T13:22:24.386Z,4.17
2018-12-22T13:24:54.920Z,4.18
2018-12-22T13:27:24.131Z,4.02
2018-12-22T13:29:53.229Z,4.01
2018-12-22T13:32:21.933Z,3.96
2018-12-22T13:34:51.094Z,3.84
2018-12-22T13:37:20.084Z,3.84
2018-12-22T13:39:48.839Z,3.81
2018-12-22T13:42:17.951Z,3.76
2018-12-22T13:44:46.637Z,3.51
2018-12-22T13:47:15.311Z,3.36
2018-12-22T13:49:44.590Z,3.13
2018-12-22T13:52:13.636Z,2.98
2018-12-22T13:54:42.485Z,2.85
2018-12-22T13:57:11.875Z,3.03
2018-12-22T13:59:41.725Z,3.15
2018-12-22T14:02:18.095Z,2.74
2018-12-22T14:04:46.512Z,2.94
2018-12-22T14:07:15.607Z,3.15
2018-12-22T14:09:44.600Z,3.11
2018-12-22T14:12:14.050Z,3.09
2018-12-22T14:14:43.781Z,2.96
2018-12-22T14:17:17.915Z,2.96
2018-12-22T14:19:51.917Z,2.87
2018-12-22T14:22:21.026Z,2.75
2018-12-22T14:24:52.472Z,2.74
2018-12-22T14:27:21.637Z,2.84
2018-12-22T14:29:50.984Z,2.99
2018-12-22T14:32:26.907Z,3.07
2018-12-22T14:35:01.259Z,3.11
2018-12-22T14:37:30.352Z,3.17
2018-12-22T14:39:59.550Z,3.19
2018-12-22T14:42:28.648Z,3.19
2018-12-22T14:44:57.752Z,3.15
2018-12-22T14:47:26.402Z,3.21
2018-12-22T14:49:55.317Z,3.12
2018-12-22T14:52:25.089Z,3.12
2018-12-22T14:54:54.123Z,3.06
2018-12-22T14:57:23.894Z,3.10
2018-12-22T14:59:52.930Z,3.08
2018-12-22T15:02:21.671Z,3.01
2018-12-22T15:04:51.036Z,2.95
2018-12-22T15:07:19.783Z,2.84
2018-12-22T15:09:49.223Z,2.77
2018-12-22T15:12:18.326Z,2.67
2018-12-22T15:14:47.973Z,2.60
2018-12-22T15:17:17.240Z,2.64
2018-12-22T15:19:46.383Z,2.59
2018-12-22T15:22:15.628Z,2.61
2018-12-22T15:24:44.800Z,2.59
2018-12-22T15:27:13.901Z,2.62
2018-12-22T15:29:42.907Z,2.64
2018-12-22T15:32:12.053Z,2.60
2018-12-22T15:34:41.181Z,2.51
2018-12-22T15:37:09.919Z,2.49
2018-12-22T15:39:38.897Z,2.47
2018-12-22T15:42:07.956Z,2.37
2018-12-22T15:44:37.064Z,2.19
2018-12-22T15:47:06.173Z,2.16
2018-12-22T15:49:34.994Z,2.21
2018-12-22T15:52:03.836Z,2.23
2018-12-22T15:54:32.569Z,2.20
2018-12-22T15:57:01.616Z,2.03
2018-12-22T15:59:30.597Z,2.01
2018-12-22T16:01:59.339Z,1.95
2018-12-22T16:04:28.031Z,1.83
2018-12-22T16:06:56.748Z,1.89
2018-12-22T16:09:25.774Z,2.03
2018-12-22T16:11:54.876Z,2.12
2018-12-22T16:14:23.979Z,2.17
2018-12-22T16:16:52.997Z,2.11
2018-12-22T16:19:22.247Z,2.08
2018-12-22T16:21:51.324Z,2.14
2018-12-22T16:24:20.155Z,2.18
2018-12-22T16:26:49.130Z,2.20
2018-12-22T16:29:26.497Z,2.18
2018-12-22T16:31:55.408Z,2.20
2018-12-22T16:34:24.138Z,2.21
2018-12-22T16:36:53.659Z,2.16
2018-12-22T16:39:22.368Z,2.14
2018-12-22T16:41:51.517Z,2.15
2018-12-22T16:44:20.547Z,2.14
2018-12-22T16:46:49.348Z,2.13
2018-12-22T16:49:18.473Z,2.11
2018-12-22T16:51:47.715Z,2.10
2018-12-22T16:54:16.779Z,2.06
2018-12-22T16:56:46.194Z,1.99
2018-12-22T16:59:15.462Z,2.03
2018-12-22T17:01:51.028Z,2.05
2018-12-22T17:04:19.794Z,2.05
2018-12-22T17:06:48.880Z,2.01
2018-12-22T17:09:17.889Z,2.02
2018-12-22T17:11:47.210Z,1.96
2018-12-22T17:14:16.309Z,1.95
2018-12-22T17:16:45.895Z,1.94
2018-12-22T17:19:14.835Z,1.96
2018-12-22T17:21:55.337Z,1.97
2018-12-22T17:24:34.398Z,1.92
2018-12-22T17:27:03.257Z,1.89
2018-12-22T17:29:32.322Z,1.83
2018-12-22T17:32:01.087Z,1.72
2018-12-22T17:34:29.908Z,1.71
2018-12-22T17:36:59.369Z,1.76
2018-12-22T17:39:36.643Z,1.78
2018-12-22T17:41:58.875Z,1.84
2018-12-22T17:44:27.860Z,1.82
2018-12-22T17:46:56.542Z,1.81
2018-12-22T17:49:26.723Z,1.84
2018-12-22T17:51:55.583Z,1.91
2018-12-22T17:54:24.550Z,1.91
2018-12-22T17:56:53.754Z,1.83
2018-12-22T17:59:22.864Z,1.85
2018-12-22T18:01:53.486Z,1.87
2018-12-22T18:04:22.500Z,1.80
2018-12-22T18:06:51.330Z,1.76
2018-12-22T18:09:20.582Z,1.75
2018-12-22T18:11:49.600Z,1.73
2018-12-22T18:14:18.665Z,1.69
2018-12-22T18:16:47.872Z,1.70
2018-12-22T18:19:17.291Z,1.74
2018-12-22T18:21:46.067Z,1.80
2018-12-22T18:24:14.936Z,1.82
2018-12-22T18:26:44.169Z,1.81
2018-12-22T18:29:13.005Z,1.73
2018-12-22T18:31:42.144Z,1.69
2018-12-22T18:34:11.085Z,1.81
2018-12-22T18:36:40.337Z,1.74
2018-12-22T18:39:09.108Z,1.75
2018-12-22T18:41:39.155Z,1.72
2018-12-22T18:44:07.936Z,1.65
2018-12-22T18:46:37.026Z,1.63
2018-12-22T18:49:06.119Z,1.56
2018-12-22T18:51:35.337Z,1.58
2018-12-22T18:54:04.744Z,1.70
2018-12-22T18:56:33.688Z,1.73
2018-12-22T18:59:02.363Z,1.73
2018-12-22T19:01:31.311Z,1.71
2018-12-22T19:04:00.396Z,1.69
2018-12-22T19:06:29.105Z,1.70
2018-12-22T19:09:00.717Z,1.69
2018-12-22T19:11:29.460Z,1.65
2018-12-22T19:13:58.806Z,1.64
2018-12-22T19:16:27.811Z,1.67
2018-12-22T19:18:56.738Z,1.69
2018-12-22T19:21:25.558Z,1.71
2018-12-22T19:23:54.581Z,1.70
2018-12-22T19:26:23.687Z,1.69
2018-12-22T19:28:52.384Z,1.66
2018-12-22T19:31:21.362Z,1.71
2018-12-22T19:33:53.548Z,1.70
2018-12-22T19:36:21.532Z,1.66
2018-12-22T19:38:50.339Z,1.62
2018-12-22T19:41:19.094Z,1.57
2018-12-22T19:43:48.165Z,1.51
2018-12-22T19:46:17.153Z,1.48
2018-12-22T19:48:46.163Z,1.49
2018-12-22T19:51:15.232Z,1.56
2018-12-22T19:53:44.044Z,1.58
2018-12-22T19:56:13.240Z,1.59
2018-12-22T19:58:42.035Z,1.59
2018-12-22T20:01:11.290Z,1.62
2018-12-22T20:03:40.214Z,1.62
2018-12-22T20:06:09.606Z,1.69
2018-12-22T20:08:38.332Z,1.72
2018-12-22T20:11:07.503Z,1.72
2018-12-22T20:13:36.587Z,1.75
2018-12-22T20:16:09.021Z,1.73
2018-12-22T20:18:36.493Z,1.70
2018-12-22T20:21:05.455Z,1.70
2018-12-22T20:23:40.759Z,1.64
2018-12-22T20:26:09.563Z,1.48
2018-12-22T20:28:38.512Z,1.48
2018-12-22T20:31:07.715Z,1.52
2018-12-22T20:33:36.729Z,1.51
2018-12-22T20:36:05.744Z,1.53
2018-12-22T20:38:34.902Z,1.53
2018-12-22T20:41:04.328Z,1.50
2018-12-22T20:43:33.078Z,1.48
2018-12-22T20:46:02.058Z,1.53
2018-12-22T20:48:31.322Z,1.49
2018-12-22T20:51:00.314Z,1.49
2018-12-22T20:53:29.003Z,1.48
2018-12-22T20:55:58.194Z,1.42
2018-12-22T20:58:26.951Z,1.30
2018-12-22T21:00:56.373Z,1.26
2018-12-22T21:03:33.226Z,1.25
2018-12-22T21:06:04.541Z,1.22
2018-12-22T21:08:33.456Z,1.16
2018-12-22T21:11:02.334Z,1.16
2018-12-22T21:13:32.886Z,1.16
2018-12-22T21:16:02.266Z,1.17
2018-12-22T21:18:31.618Z,1.20
2018-12-22T21:21:00.607Z,1.22
2018-12-22T21:23:29.477Z,1.17
2018-12-22T21:25:58.231Z,1.11
2018-12-22T21:28:26.989Z,1.19
2018-12-22T21:30:56.087Z,1.22
2018-12-22T21:33:24.769Z,1.23
2018-12-22T21:35:53.684Z,1.26
2018-12-22T21:38:22.741Z,1.29
2018-12-22T21:40:53.077Z,1.24
2018-12-22T21:43:22.365Z,1.16
2018-12-22T21:45:51.128Z,1.17
2018-12-22T21:48:20.148Z,1.14
2018-12-22T21:50:49.155Z,1.13
2018-12-22T21:53:18.084Z,1.14
2018-12-22T21:55:47.141Z,1.11
2018-12-22T21:58:16.225Z,1.12
2018-12-22T22:00:44.965Z,1.06
2018-12-22T22:03:14.297Z,1.05
2018-12-22T22:05:43.167Z,1.07
2018-12-22T22:08:12.312Z,1.02
2018-12-22T22:10:41.115Z,0.95
2018-12-22T22:13:10.204Z,0.89
2018-12-22T22:15:39.202Z,0.86
2018-12-22T22:18:08.766Z,0.83
2018-12-22T22:20:37.496Z,0.85
2018-12-22T22:23:06.299Z,0.83
2018-12-22T22:25:35.277Z,0.86
2018-12-22T22:28:04.552Z,0.84
2018-12-22T22:30:33.607Z,0.82
2018-12-22T22:33:02.299Z,0.78
2018-12-22T22:35:31.848Z,0.74
2018-12-22T22:38:01.272Z,0.70
2018-12-22T22:40:29.968Z,0.73
2018-12-22T22:42:58.988Z,0.79
2018-12-22T22:45:27.742Z,0.85
2018-12-22T22:47:56.713Z,0.88
2018-12-22T22:50:25.485Z,1.00
2018-12-22T22:52:54.419Z,1.07
2018-12-22T22:55:23.092Z,1.14
2018-12-22T22:57:52.083Z,1.01
2018-12-22T23:00:27.668Z,1.11
2018-12-22T23:02:57.338Z,1.16
2018-12-22T23:05:26.098Z,1.18
2018-12-22T23:07:54.803Z,1.22
2018-12-22T23:10:23.550Z,1.24
2018-12-22T23:12:52.246Z,1.21
2018-12-22T23:15:21.054Z,1.24
2018-12-22T23:17:49.775Z,1.19
2018-12-22T23:20:18.500Z,1.25
2018-12-22T23:22:47.562Z,1.29
2018-12-22T23:25:16.276Z,1.20
2018-12-22T23:27:45.335Z,1.19
2018-12-22T23:30:14.196Z,1.15
2018-12-22T23:32:42.932Z,1.16
2018-12-22T23:35:11.997Z,1.10
2018-12-22T23:37:40.770Z,1.05
2018-12-22T23:40:09.514Z,1.07
2018-12-22T23:42:38.250Z,1.11
2018-12-22T23:45:07.776Z,1.07
2018-12-22T23:47:36.856Z,0.69
2018-12-22T23:50:07.006Z,0.75
2018-12-22T23:52:35.987Z,0.73
2018-12-22T23:55:05.219Z,0.48
2018-12-22T23:57:33.979Z,0.33
